Rechercher aéroport 
image banner adimage banner adimage banner ad
image banner ad

8CA2 - Auburn Cal Fire

Situé à Auburn, United States

ICAO - 8CA2, IATA -

Données fournies par Airmate  

Information générale

Coordonnées: N38°56'3" W121°3'14"
Élévation : 1635 feet MSL.
Variation magnétique : 16° East
Voir autres Aéroports à California

Données opérationnelles

Special qualification required
Heure actuelle UTC:
Heure actuelle locale:
Météo à : KAUN - Auburn Muni ( 3 km )
METAR: KAUN 251235Z AUTO 09004KT 10SM CLR 25/05 A2993 RMK A01
Voir NOTAMs / SUP AIP / TFR affectant cet aéroport [VIEW]
Fréquences de communication: [VIEW]

Pistes:

Coordonnées de l'aéroport

Adresse: Auburn United States

Vue satellite de 8CA2